Nearby METAR Reports

 

KMLI - Moline/Quad City, Illinois, USA
Distance from station: ENE 4mi, 7km
Updated: 07/12/2020 3:52am

 
Barometer: 29.85 inHg , 1010.8 hPa
2020/07/12 08:52 KMLI 120852Z AUTO A2985 RMK AO2 SLPNO 52003 PWINO $
KDVN - Davenport/Quad C, Iowa, USA
Distance from station: N 14mi, 22km
Updated: 07/12/2020 3:52am
Few Clouds
Few Clouds
 Wind from SW
Wind: SW 5 mph , 7 km/h
Temperature: 63°F , 17°C
Dew Point: 61°F , 16°C
Humidity: 94%
Barometer: 29.87 inHg , 1011.5 hPa
Clouds: Few Clouds
Visibility: 10 miles , 16 km
Cloud details: Few Clouds 6500 ft
2020/07/12 08:52 KDVN 120852Z AUTO 23004KT 10SM FEW065 17/16 A2987 RMK AO2 SLP107 T01720156 50005
 
KMUT - Muscatine, Iowa, USA
Distance from station: W 29mi, 47km
Updated: 07/12/2020 4:15am
Mostly cloudy
Mostly cloudy
 Wind from calm
Wind: Calm
Temperature: 66°F , 19°C
Dew Point: 64°F , 18°C
Humidity: 94%
Barometer: 29.86 inHg , 1011.2 hPa
Clouds: Mostly cloudy
Visibility: 10 miles , 16 km
Cloud details: Mostly cloudy 12000 ft
2020/07/12 09:15 KMUT 120915Z AUTO 00000KT 10SM BKN120 19/18 A2986 RMK AO2
KCWI - Clinton Muni, Iowa, USA
Distance from station: NNE 31mi, 50km
Updated: 07/12/2020 3:56am
Clear
Clear
 Wind from W
Wind: W 3 mph , 6 km/h
Temperature: 61°F , 16°C
Dew Point: 61°F , 16°C
Humidity: 100%
Barometer: 29.86 inHg , 1011.2 hPa
Clouds: Clear
Visibility: 10 miles , 16 km
2020/07/12 08:56 KCWI 120856Z AUTO 28003KT 10SM CLR 16/16 A2986 RMK AO2 SLP109 T01610161 51005
 
KGBG - Galesburg, Illinois, USA
Distance from station: SSE 35mi, 56km
Updated: 07/12/2020 4:15am
Mostly cloudy
Mostly cloudy
 Wind from WNW
Wind: WNW 3 mph , 6 km/h
Temperature: 63°F , 17°C
Dew Point: 63°F , 17°C
Humidity: 100%
Barometer: 29.87 inHg , 1011.5 hPa
Clouds: Mostly cloudy
Visibility: 10 miles , 16 km
Cloud details: Mostly cloudy 12000 ft
2020/07/12 09:15 KGBG 120915Z AUTO 29003KT 10SM BKN120 17/17 A2987 RMK AO2 T01710166
KSFY - Savanna/Tritown, Illinois, USA
Distance from station: NNE 50mi, 80km
Updated: 07/12/2020 4:15am
Clear
Clear
 Wind from calm
Wind: Calm
Temperature: 61°F , 16°C
Dew Point: 61°F , 16°C
Humidity: 100%
Barometer: 29.85 inHg , 1010.8 hPa
Clouds: Clear
Visibility: 10 miles , 16 km
2020/07/12 09:15 KSFY 120915Z AUTO 00000KT 10SM CLR 16/16 A2985 RMK AO2